createdAt,value
2019-05-19T00:00:08.809Z,0.30
2019-05-19T00:01:09.059Z,0.30
2019-05-19T00:02:08.299Z,0.30
2019-05-19T00:03:08.462Z,0.30
2019-05-19T00:04:08.577Z,0.60
2019-05-19T00:05:08.724Z,0.20
2019-05-19T00:06:08.851Z,0.80
2019-05-19T00:07:08.992Z,0.30
2019-05-19T00:08:09.171Z,0.50
2019-05-19T00:09:09.306Z,0.50
2019-05-19T00:10:09.439Z,0.40
2019-05-19T00:11:09.557Z,0.40
2019-05-19T00:12:09.689Z,0.60
2019-05-19T00:13:10.325Z,0.30
2019-05-19T00:14:10.966Z,0.40
2019-05-19T00:15:10.084Z,0.30
2019-05-19T00:16:10.219Z,0.50
2019-05-19T00:17:11.304Z,0.20
2019-05-19T00:18:11.324Z,0.80
2019-05-19T00:19:24.476Z,0.40
2019-05-19T00:20:44.340Z,0.50
2019-05-19T00:21:11.175Z,0.20
2019-05-19T00:22:12.313Z,0.20
2019-05-19T00:23:11.575Z,0.30
2019-05-19T00:24:11.713Z,0.20
2019-05-19T00:25:11.849Z,0.40
2019-05-19T00:26:12.862Z,0.30
2019-05-19T00:27:12.213Z,0.30
2019-05-19T00:28:12.371Z,0.50
2019-05-19T00:29:12.499Z,0.50
2019-05-19T00:30:12.636Z,0.70
2019-05-19T00:31:12.772Z,0.50
2019-05-19T00:32:12.933Z,0.30
2019-05-19T00:33:13.842Z,0.40
2019-05-19T00:34:13.235Z,0.20
2019-05-19T00:35:13.426Z,0.40
2019-05-19T00:36:14.357Z,0.80
2019-05-19T00:37:13.715Z,0.20
2019-05-19T00:38:13.851Z,0.40
2019-05-19T00:39:13.974Z,0.40
2019-05-19T00:40:14.141Z,0.20
2019-05-19T00:41:14.261Z,0.40
2019-05-19T00:42:14.412Z,0.20
2019-05-19T00:43:14.553Z,0.40
2019-05-19T00:44:14.716Z,0.20
2019-05-19T00:45:15.347Z,0.30
2019-05-19T00:46:14.935Z,0.70
2019-05-19T00:47:15.846Z,0.40
2019-05-19T00:48:15.188Z,0.50
2019-05-19T00:49:15.367Z,0.30
2019-05-19T00:50:15.489Z,0.30
2019-05-19T00:51:48.506Z,0.60
2019-05-19T00:52:15.848Z,0.40
2019-05-19T00:53:16.092Z,0.40
2019-05-19T00:54:16.394Z,0.70
2019-05-19T00:55:16.555Z,0.70
2019-05-19T00:56:17.363Z,0.60
2019-05-19T00:57:17.366Z,0.40
2019-05-19T00:58:16.972Z,0.20
2019-05-19T00:59:17.219Z,0.30
2019-05-19T01:00:17.433Z,0.60
2019-05-19T01:01:17.648Z,0.70
2019-05-19T01:02:17.898Z,0.60
2019-05-19T01:03:18.057Z,0.30
2019-05-19T01:04:18.199Z,0.20
2019-05-19T01:05:20.722Z,0.40
2019-05-19T01:06:20.373Z,0.30
2019-05-19T01:07:18.713Z,0.70
2019-05-19T01:08:18.876Z,0.40
2019-05-19T01:09:19.001Z,0.80
2019-05-19T01:10:19.386Z,1.00
2019-05-19T01:11:19.371Z,0.70
2019-05-19T01:12:19.497Z,0.50
2019-05-19T01:13:20.369Z,0.30
2019-05-19T01:14:20.373Z,0.40
2019-05-19T01:15:19.991Z,0.30
2019-05-19T01:16:20.084Z,0.40
2019-05-19T01:17:20.218Z,0.90
2019-05-19T01:18:20.371Z,0.30
2019-05-19T01:19:21.382Z,0.40
2019-05-19T01:20:20.645Z,0.20
2019-05-19T01:21:54.179Z,0.30
2019-05-19T01:22:54.314Z,0.30
2019-05-19T01:23:21.903Z,0.40
2019-05-19T01:24:21.912Z,0.30
2019-05-19T01:25:21.409Z,0.60
2019-05-19T01:26:21.576Z,0.30
2019-05-19T01:27:21.712Z,0.20
2019-05-19T01:28:22.404Z,0.30
2019-05-19T01:29:22.036Z,0.50
2019-05-19T01:30:22.217Z,0.40
2019-05-19T01:31:22.365Z,0.30
2019-05-19T01:32:22.518Z,0.80
2019-05-19T01:33:22.770Z,0.70
2019-05-19T01:34:22.947Z,0.50
2019-05-19T01:35:23.109Z,0.30
2019-05-19T01:36:23.266Z,0.30
2019-05-19T01:37:23.472Z,0.50
2019-05-19T01:38:23.922Z,0.60
2019-05-19T01:39:23.767Z,0.20
2019-05-19T01:40:23.862Z,0.50
2019-05-19T01:41:24.041Z,0.60
2019-05-19T01:42:24.224Z,0.30
2019-05-19T01:43:24.369Z,0.40
2019-05-19T01:44:24.508Z,0.30
2019-05-19T01:45:24.658Z,0.40
2019-05-19T01:46:24.816Z,0.60
2019-05-19T01:47:25.010Z,0.40
2019-05-19T01:48:27.907Z,0.20
2019-05-19T01:49:25.350Z,0.30
2019-05-19T01:50:25.515Z,0.40
2019-05-19T01:51:25.646Z,0.40
2019-05-19T01:53:00.242Z,0.30
2019-05-19T01:53:25.933Z,0.70
2019-05-19T01:54:26.105Z,0.50
2019-05-19T01:55:26.257Z,0.60
2019-05-19T01:56:26.943Z,0.30
2019-05-19T01:57:26.966Z,0.30
2019-05-19T01:58:26.966Z,0.30
2019-05-19T01:59:27.951Z,0.30
2019-05-19T02:00:27.173Z,0.50
2019-05-19T02:01:27.297Z,0.50
2019-05-19T02:02:27.426Z,0.40
2019-05-19T02:03:27.966Z,0.40
2019-05-19T02:04:27.716Z,0.30
2019-05-19T02:05:27.854Z,0.70
2019-05-19T02:06:27.969Z,0.20
2019-05-19T02:07:28.107Z,0.30
2019-05-19T02:08:28.467Z,0.30
2019-05-19T02:09:28.459Z,0.30
2019-05-19T02:10:28.961Z,0.70
2019-05-19T02:11:28.699Z,0.30
2019-05-19T02:12:29.459Z,0.40
2019-05-19T02:13:29.104Z,0.50
2019-05-19T02:14:29.969Z,0.70
2019-05-19T02:15:29.459Z,0.40
2019-05-19T02:16:29.700Z,0.70
2019-05-19T02:17:30.842Z,0.50
2019-05-19T02:18:29.980Z,0.40
2019-05-19T02:19:30.087Z,0.20
2019-05-19T02:20:33.154Z,0.80
2019-05-19T02:21:31.446Z,0.40
2019-05-19T02:22:31.459Z,0.40
2019-05-19T02:24:05.226Z,0.50
2019-05-19T02:24:30.927Z,0.60
2019-05-19T02:25:31.029Z,0.40
2019-05-19T02:26:31.264Z,0.60
2019-05-19T02:27:31.506Z,0.80
2019-05-19T02:28:32.475Z,0.90
2019-05-19T02:29:31.816Z,0.60
2019-05-19T02:30:32.071Z,0.80
2019-05-19T02:31:32.115Z,0.80
2019-05-19T02:32:32.247Z,0.70
2019-05-19T02:33:35.873Z,0.80
2019-05-19T02:34:33.745Z,0.80
2019-05-19T02:35:32.866Z,0.50
2019-05-19T02:36:33.038Z,1.00
2019-05-19T02:37:33.198Z,0.80
2019-05-19T02:38:33.344Z,1.10
2019-05-19T02:39:35.484Z,0.50
2019-05-19T02:40:33.711Z,1.00
2019-05-19T02:41:33.887Z,1.00
2019-05-19T02:42:34.043Z,0.60
2019-05-19T02:43:34.224Z,0.40
2019-05-19T02:44:34.374Z,0.60
2019-05-19T02:45:34.558Z,0.80
2019-05-19T02:46:34.692Z,0.60
2019-05-19T02:47:35.486Z,0.70
2019-05-19T02:48:36.039Z,0.20
2019-05-19T02:49:35.162Z,0.70
2019-05-19T02:50:50.809Z,0.70
2019-05-19T02:51:37.539Z,0.50
2019-05-19T02:52:35.761Z,0.40
2019-05-19T02:53:35.908Z,0.60
2019-05-19T02:55:09.477Z,0.80
2019-05-19T02:55:37.008Z,0.70
2019-05-19T02:56:36.504Z,1.20
2019-05-19T02:57:36.661Z,0.50
2019-05-19T02:58:37.508Z,0.20
2019-05-19T02:59:37.003Z,0.80
2019-05-19T03:00:38.027Z,0.30
2019-05-19T03:01:37.331Z,0.40
2019-05-19T03:02:37.437Z,0.30
2019-05-19T03:03:37.569Z,0.50
2019-05-19T03:04:37.698Z,0.90
2019-05-19T03:05:38.542Z,0.40
2019-05-19T03:06:38.048Z,0.50
2019-05-19T03:07:38.195Z,0.50
2019-05-19T03:08:38.357Z,0.60
2019-05-19T03:09:38.597Z,0.30
2019-05-19T03:10:38.853Z,0.70
2019-05-19T03:11:38.968Z,0.70
2019-05-19T03:12:39.221Z,0.40
2019-05-19T03:13:40.352Z,0.30
2019-05-19T03:14:39.551Z,0.50
2019-05-19T03:15:39.676Z,0.40
2019-05-19T03:16:40.528Z,0.50
2019-05-19T03:17:40.148Z,0.40
2019-05-19T03:18:40.259Z,0.40
2019-05-19T03:19:40.497Z,0.40
2019-05-19T03:20:40.724Z,0.70
2019-05-19T03:21:40.968Z,0.30
2019-05-19T03:22:41.534Z,0.40
2019-05-19T03:23:42.468Z,0.50
2019-05-19T03:24:41.545Z,0.50
2019-05-19T03:26:17.059Z,0.40
2019-05-19T03:27:15.280Z,0.80
2019-05-19T03:27:42.020Z,0.50
2019-05-19T03:28:42.142Z,0.60
2019-05-19T03:29:42.375Z,0.60
2019-05-19T03:30:42.625Z,0.80
2019-05-19T03:31:42.773Z,0.60
2019-05-19T03:32:43.120Z,0.60
2019-05-19T03:33:43.125Z,0.50
2019-05-19T03:34:43.267Z,0.50
2019-05-19T03:35:43.414Z,1.40
2019-05-19T03:36:43.568Z,0.50
2019-05-19T03:37:43.731Z,0.80
2019-05-19T03:38:43.858Z,0.80
2019-05-19T03:39:44.104Z,0.50
2019-05-19T03:40:45.091Z,0.50
2019-05-19T03:41:44.598Z,0.30
2019-05-19T03:42:44.626Z,0.50
2019-05-19T03:43:44.761Z,0.30
2019-05-19T03:44:45.578Z,0.50
2019-05-19T03:45:45.151Z,0.30
2019-05-19T03:46:46.075Z,0.40
2019-05-19T03:47:45.561Z,0.40
2019-05-19T03:48:45.667Z,0.60
2019-05-19T03:49:45.888Z,0.30
2019-05-19T03:50:46.135Z,0.50
2019-05-19T03:51:46.246Z,0.50
2019-05-19T03:52:46.511Z,0.20
2019-05-19T03:53:46.651Z,0.70
2019-05-19T03:54:47.579Z,0.40
2019-05-19T03:56:21.003Z,0.30
2019-05-19T03:57:20.483Z,0.90
2019-05-19T03:57:47.193Z,0.50
2019-05-19T03:58:47.645Z,1.00
2019-05-19T03:59:48.135Z,0.20
2019-05-19T04:00:47.842Z,0.70
2019-05-19T04:01:48.079Z,0.40
2019-05-19T04:02:49.120Z,0.60
2019-05-19T04:03:48.350Z,0.60
2019-05-19T04:04:48.446Z,0.50
2019-05-19T04:05:48.682Z,0.60
2019-05-19T04:06:49.629Z,0.60
2019-05-19T04:07:49.057Z,0.20
2019-05-19T04:08:49.288Z,0.40
2019-05-19T04:09:49.489Z,0.70
2019-05-19T04:10:49.677Z,0.30
2019-05-19T04:11:49.894Z,0.70
2019-05-19T04:12:50.102Z,0.50
2019-05-19T04:13:50.344Z,0.40
2019-05-19T04:14:50.597Z,0.30
2019-05-19T04:15:50.704Z,0.30
2019-05-19T04:16:50.952Z,0.30
2019-05-19T04:17:51.186Z,0.80
2019-05-19T04:18:51.634Z,0.40
2019-05-19T04:19:51.585Z,0.50
2019-05-19T04:20:51.805Z,0.30
2019-05-19T04:21:51.942Z,0.60
2019-05-19T04:22:52.068Z,0.90
2019-05-19T04:23:52.208Z,0.50
2019-05-19T04:24:52.353Z,0.80
2019-05-19T04:25:52.463Z,0.60
2019-05-19T04:27:27.024Z,0.30
2019-05-19T04:28:26.277Z,0.80
2019-05-19T04:28:52.988Z,0.80
2019-05-19T04:29:53.144Z,0.50
2019-05-19T04:30:54.174Z,0.50
2019-05-19T04:31:53.426Z,0.70
2019-05-19T04:32:54.166Z,0.50
2019-05-19T04:33:53.789Z,0.60
2019-05-19T04:34:53.986Z,0.90
2019-05-19T04:35:57.443Z,0.40
2019-05-19T04:36:55.335Z,1.30
2019-05-19T04:37:54.567Z,0.50
2019-05-19T04:38:54.715Z,0.50
2019-05-19T04:39:55.680Z,0.60
2019-05-19T04:40:55.033Z,0.60
2019-05-19T04:41:55.182Z,0.60
2019-05-19T04:42:55.307Z,0.60
2019-05-19T04:43:57.170Z,0.80
2019-05-19T04:44:55.640Z,0.80
2019-05-19T04:45:55.792Z,0.50
2019-05-19T04:46:55.914Z,0.60
2019-05-19T04:47:56.050Z,0.80
2019-05-19T04:48:56.187Z,0.70
2019-05-19T04:49:56.313Z,0.90
2019-05-19T04:50:57.467Z,0.50
2019-05-19T04:52:06.617Z,0.70
2019-05-19T04:52:58.873Z,0.80
2019-05-19T04:53:57.070Z,1.00
2019-05-19T04:54:57.198Z,0.50
2019-05-19T04:55:57.420Z,0.80
2019-05-19T04:56:57.692Z,0.70
2019-05-19T04:58:33.614Z,0.90
2019-05-19T04:58:57.908Z,1.50
2019-05-19T04:59:58.028Z,0.80
2019-05-19T05:00:58.258Z,0.60
2019-05-19T05:01:58.525Z,1.20
2019-05-19T05:02:58.680Z,1.60
2019-05-19T05:03:58.797Z,1.10
2019-05-19T05:04:59.745Z,1.70
2019-05-19T05:05:59.086Z,1.00
2019-05-19T05:06:59.227Z,1.40
2019-05-19T05:07:59.331Z,0.70
2019-05-19T05:08:59.562Z,1.80
2019-05-19T05:10:00.807Z,1.50
2019-05-19T05:11:01.231Z,1.40
2019-05-19T05:12:00.176Z,1.00
2019-05-19T05:13:00.416Z,1.10
2019-05-19T05:14:00.627Z,0.60
2019-05-19T05:15:00.839Z,1.20
2019-05-19T05:16:01.096Z,0.90
2019-05-19T05:17:01.213Z,0.80
2019-05-19T05:18:01.392Z,0.70
2019-05-19T05:19:01.523Z,1.10
2019-05-19T05:20:01.744Z,0.80
2019-05-19T05:21:01.948Z,1.00
2019-05-19T05:22:02.160Z,1.20
2019-05-19T05:23:02.407Z,0.70
2019-05-19T05:24:02.614Z,1.50
2019-05-19T05:25:02.843Z,0.80
2019-05-19T05:26:02.938Z,0.60
2019-05-19T05:27:03.730Z,1.20
2019-05-19T05:28:03.315Z,0.40
2019-05-19T05:29:36.828Z,0.80
2019-05-19T05:30:04.261Z,0.70
2019-05-19T05:31:03.859Z,0.70
2019-05-19T05:32:04.071Z,1.10
2019-05-19T05:33:04.331Z,0.90
2019-05-19T05:34:04.445Z,0.80
2019-05-19T05:35:04.703Z,1.00
2019-05-19T05:36:04.815Z,1.00
2019-05-19T05:37:05.748Z,0.80
2019-05-19T05:38:05.084Z,1.00
2019-05-19T05:39:05.326Z,0.80
2019-05-19T05:40:05.828Z,1.00
2019-05-19T05:41:05.586Z,1.40
2019-05-19T05:42:05.706Z,0.70
2019-05-19T05:43:05.981Z,0.90
2019-05-19T05:44:06.125Z,0.70
2019-05-19T05:45:07.256Z,0.80
2019-05-19T05:46:07.259Z,0.50
2019-05-19T05:47:06.612Z,0.70
2019-05-19T05:48:06.753Z,0.60
2019-05-19T05:49:06.924Z,0.80
2019-05-19T05:50:07.055Z,0.50
2019-05-19T05:51:07.173Z,1.00
2019-05-19T05:52:07.304Z,0.80
2019-05-19T05:53:07.452Z,0.50
2019-05-19T05:54:07.614Z,0.70
2019-05-19T05:55:07.783Z,1.00
2019-05-19T05:56:08.756Z,1.00
2019-05-19T05:57:08.757Z,1.10
2019-05-19T05:58:08.290Z,0.80
2019-05-19T05:59:08.418Z,1.10
2019-05-19T06:00:08.797Z,0.90
2019-05-19T06:01:08.695Z,0.60
2019-05-19T06:02:08.806Z,0.50
2019-05-19T06:03:09.745Z,1.20
2019-05-19T06:04:09.264Z,1.00
2019-05-19T06:05:09.441Z,1.20
2019-05-19T06:06:09.597Z,0.70
2019-05-19T06:07:09.786Z,0.90
2019-05-19T06:08:10.057Z,1.70
2019-05-19T06:09:10.211Z,1.50
2019-05-19T06:10:10.342Z,0.80
2019-05-19T06:11:10.469Z,1.00
2019-05-19T06:12:10.614Z,1.00
2019-05-19T06:13:10.752Z,1.40
2019-05-19T06:14:10.939Z,1.70
2019-05-19T06:15:11.074Z,1.80
2019-05-19T06:16:11.767Z,0.90
2019-05-19T06:17:11.373Z,0.90
2019-05-19T06:18:11.538Z,1.90
2019-05-19T06:19:11.656Z,1.70
2019-05-19T06:20:12.268Z,1.20
2019-05-19T06:21:12.014Z,1.50
2019-05-19T06:22:12.263Z,1.40
2019-05-19T06:23:12.399Z,1.70
2019-05-19T06:24:12.514Z,1.50
2019-05-19T06:25:12.757Z,0.90
2019-05-19T06:26:13.763Z,1.00
2019-05-19T06:27:12.994Z,1.10
2019-05-19T06:28:13.130Z,1.10
2019-05-19T06:29:13.763Z,1.30
2019-05-19T06:30:46.800Z,1.30
2019-05-19T06:31:46.909Z,2.30
2019-05-19T06:32:13.733Z,1.20
2019-05-19T06:33:14.807Z,1.90
2019-05-19T06:34:14.037Z,1.00
2019-05-19T06:35:14.193Z,1.20
2019-05-19T06:36:14.336Z,1.50
2019-05-19T06:37:14.824Z,1.40
2019-05-19T06:38:14.716Z,0.90
2019-05-19T06:39:14.881Z,1.60
2019-05-19T06:40:15.030Z,1.60
2019-05-19T06:41:15.240Z,1.10
2019-05-19T06:42:15.407Z,1.80
2019-05-19T06:43:16.314Z,1.30
2019-05-19T06:44:15.819Z,1.50
2019-05-19T06:45:15.965Z,1.30
2019-05-19T06:46:16.161Z,1.30
2019-05-19T06:47:16.299Z,1.20
2019-05-19T06:48:16.431Z,1.10
2019-05-19T06:49:16.579Z,1.20
2019-05-19T06:50:17.715Z,1.70
2019-05-19T06:51:16.966Z,2.10
2019-05-19T06:52:17.166Z,1.40
2019-05-19T06:53:17.316Z,1.80
2019-05-19T06:54:17.483Z,1.40
2019-05-19T06:55:18.321Z,1.40
2019-05-19T06:56:17.845Z,1.30
2019-05-19T06:57:18.052Z,1.90
2019-05-19T06:58:18.228Z,1.60
2019-05-19T06:59:18.414Z,1.30
2019-05-19T07:00:18.597Z,1.60
2019-05-19T07:01:18.760Z,1.70
2019-05-19T07:02:52.345Z,2.00
2019-05-19T07:03:19.050Z,1.60
2019-05-19T07:04:19.192Z,1.50
2019-05-19T07:05:19.344Z,1.70
2019-05-19T07:06:19.478Z,2.70
2019-05-19T07:07:20.349Z,1.40
2019-05-19T07:08:20.356Z,2.90
2019-05-19T07:09:20.009Z,2.20
2019-05-19T07:10:20.150Z,2.00
2019-05-19T07:11:20.836Z,1.50
2019-05-19T07:12:20.457Z,1.70
2019-05-19T07:13:20.651Z,2.00
2019-05-19T07:14:20.822Z,2.50
2019-05-19T07:15:20.978Z,1.90
2019-05-19T07:16:21.143Z,2.40
2019-05-19T07:17:21.264Z,1.70
2019-05-19T07:18:21.429Z,1.70
2019-05-19T07:19:21.865Z,2.30
2019-05-19T07:20:21.743Z,2.20
2019-05-19T07:21:22.856Z,1.50
2019-05-19T07:22:22.087Z,1.90
2019-05-19T07:23:55.154Z,1.70
2019-05-19T07:24:22.404Z,2.30
2019-05-19T07:25:23.377Z,2.80
2019-05-19T07:26:22.709Z,1.90
2019-05-19T07:27:22.887Z,2.50
2019-05-19T07:28:23.128Z,1.80
2019-05-19T07:29:23.282Z,1.60
2019-05-19T07:30:23.402Z,2.00
2019-05-19T07:31:23.658Z,1.90
2019-05-19T07:32:23.762Z,1.80
2019-05-19T07:33:23.999Z,1.90
2019-05-19T07:34:24.122Z,1.60
2019-05-19T07:35:24.383Z,1.30
2019-05-19T07:36:25.385Z,1.80
2019-05-19T07:37:24.701Z,1.20
2019-05-19T07:38:24.854Z,1.50
2019-05-19T07:39:25.010Z,1.60
2019-05-19T07:40:25.160Z,1.90
2019-05-19T07:41:25.278Z,2.20
2019-05-19T07:42:25.505Z,1.60
2019-05-19T07:43:25.636Z,1.40
2019-05-19T07:44:25.886Z,1.50
2019-05-19T07:45:25.884Z,1.40
2019-05-19T07:46:26.068Z,1.00
2019-05-19T07:47:26.232Z,1.50
2019-05-19T07:48:26.355Z,1.70
2019-05-19T07:49:26.626Z,1.50
2019-05-19T07:50:27.366Z,1.90
2019-05-19T07:51:27.030Z,1.80
2019-05-19T07:52:27.192Z,1.80
2019-05-19T07:53:27.336Z,1.90
2019-05-19T07:54:27.484Z,2.00
2019-05-19T07:55:27.627Z,1.50
2019-05-19T07:56:28.366Z,2.00
2019-05-19T07:57:27.996Z,1.80
2019-05-19T07:58:28.877Z,1.60
2019-05-19T07:59:28.240Z,1.80
2019-05-19T08:00:29.529Z,1.90
2019-05-19T08:01:28.528Z,2.30
2019-05-19T08:02:28.700Z,2.40
2019-05-19T08:03:28.827Z,1.80
2019-05-19T08:04:28.950Z,1.60
2019-05-19T08:05:29.107Z,1.80
2019-05-19T08:06:29.882Z,2.00
2019-05-19T08:07:29.383Z,1.20
2019-05-19T08:08:29.527Z,1.70
2019-05-19T08:09:29.672Z,1.50
2019-05-19T08:10:29.859Z,1.80
2019-05-19T08:11:30.034Z,1.40
2019-05-19T08:12:30.884Z,1.80
2019-05-19T08:13:30.384Z,1.50
2019-05-19T08:14:30.605Z,1.50
2019-05-19T08:15:30.909Z,1.20
2019-05-19T08:16:30.917Z,1.60
2019-05-19T08:17:31.042Z,1.30
2019-05-19T08:18:31.193Z,1.50
2019-05-19T08:19:32.298Z,1.80
2019-05-19T08:20:31.525Z,1.60
2019-05-19T08:21:31.683Z,1.40
2019-05-19T08:22:31.910Z,1.80
2019-05-19T08:23:31.941Z,1.60
2019-05-19T08:24:32.075Z,1.40
2019-05-19T08:25:32.239Z,1.60
2019-05-19T08:26:33.405Z,2.20
2019-05-19T08:27:32.672Z,2.10
2019-05-19T08:28:33.396Z,1.40
2019-05-19T08:29:33.019Z,1.70
2019-05-19T08:30:33.181Z,2.50
2019-05-19T08:31:33.884Z,1.90
2019-05-19T08:32:33.520Z,1.90
2019-05-19T08:33:33.681Z,2.30
2019-05-19T08:34:33.824Z,1.50
2019-05-19T08:35:34.004Z,1.20
2019-05-19T08:36:34.183Z,1.20
2019-05-19T08:37:34.357Z,1.90
2019-05-19T08:38:34.502Z,1.40
2019-05-19T08:39:35.408Z,1.30
2019-05-19T08:40:34.821Z,1.00
2019-05-19T08:41:34.964Z,1.70
2019-05-19T08:42:35.111Z,1.10
2019-05-19T08:43:35.248Z,1.50
2019-05-19T08:44:35.368Z,2.10
2019-05-19T08:45:35.490Z,2.00
2019-05-19T08:46:35.628Z,1.70
2019-05-19T08:47:35.788Z,1.50
2019-05-19T08:48:35.966Z,1.80
2019-05-19T08:49:36.077Z,1.40
2019-05-19T08:50:36.287Z,1.60
2019-05-19T08:51:36.400Z,1.10
2019-05-19T08:52:36.555Z,1.70
2019-05-19T08:53:36.726Z,2.00
2019-05-19T08:54:36.914Z,2.20
2019-05-19T08:55:37.055Z,1.20
2019-05-19T08:56:37.897Z,1.50
2019-05-19T08:57:38.401Z,1.30
2019-05-19T08:58:37.667Z,1.20
2019-05-19T08:59:37.838Z,1.20
2019-05-19T09:00:38.901Z,1.30
2019-05-19T09:01:38.160Z,1.70
2019-05-19T09:02:38.318Z,1.00
2019-05-19T09:03:38.480Z,1.40
2019-05-19T09:04:38.650Z,1.40
2019-05-19T09:06:12.221Z,1.60
2019-05-19T09:06:45.914Z,1.90
2019-05-19T09:07:39.138Z,1.40
2019-05-19T09:08:39.276Z,1.60
2019-05-19T09:09:40.943Z,1.50
2019-05-19T09:10:39.530Z,1.50
2019-05-19T09:11:39.784Z,1.30
2019-05-19T09:12:40.425Z,1.50
2019-05-19T09:13:40.458Z,1.40
2019-05-19T09:14:40.250Z,1.70
2019-05-19T09:15:40.388Z,1.40
2019-05-19T09:16:40.952Z,1.90
2019-05-19T09:17:40.677Z,1.80
2019-05-19T09:18:40.906Z,1.10
2019-05-19T09:19:41.485Z,2.00
2019-05-19T09:20:41.944Z,1.90
2019-05-19T09:21:41.412Z,1.40
2019-05-19T09:22:41.652Z,1.70
2019-05-19T09:23:41.784Z,1.60
2019-05-19T09:24:41.939Z,2.50
2019-05-19T09:25:42.081Z,1.50
2019-05-19T09:26:42.225Z,1.70
2019-05-19T09:27:42.406Z,1.50
2019-05-19T09:28:42.553Z,1.50
2019-05-19T09:29:42.766Z,2.10
2019-05-19T09:30:43.446Z,1.70
2019-05-19T09:31:43.081Z,2.00
2019-05-19T09:32:43.209Z,1.70
2019-05-19T09:33:43.359Z,1.50
2019-05-19T09:34:43.537Z,1.20
2019-05-19T09:35:43.683Z,1.50
2019-05-19T09:36:43.883Z,1.10
2019-05-19T09:37:44.041Z,1.60
2019-05-19T09:38:44.946Z,1.10
2019-05-19T09:39:44.316Z,1.60
2019-05-19T09:40:44.962Z,2.20
2019-05-19T09:41:44.579Z,1.60
2019-05-19T09:42:44.713Z,1.60
2019-05-19T09:43:44.848Z,1.50
2019-05-19T09:44:44.970Z,1.50
2019-05-19T09:45:45.450Z,1.40
2019-05-19T09:46:45.322Z,1.60
2019-05-19T09:47:45.456Z,2.40
2019-05-19T09:48:45.605Z,1.60
2019-05-19T09:49:46.447Z,1.60
2019-05-19T09:50:45.966Z,1.10
2019-05-19T09:51:46.096Z,1.30
2019-05-19T09:52:46.265Z,1.60
2019-05-19T09:53:46.394Z,1.60
2019-05-19T09:54:46.510Z,1.20
2019-05-19T09:55:46.659Z,1.00
2019-05-19T09:56:46.949Z,1.90
2019-05-19T09:57:46.977Z,1.80
2019-05-19T09:58:47.109Z,1.90
2019-05-19T09:59:47.267Z,1.90
2019-05-19T10:00:47.414Z,1.50
2019-05-19T10:01:47.574Z,2.10
2019-05-19T10:02:47.734Z,1.80
2019-05-19T10:03:47.860Z,1.40
2019-05-19T10:04:48.027Z,1.80
2019-05-19T10:05:48.184Z,2.00
2019-05-19T10:06:48.428Z,1.60
2019-05-19T10:07:48.500Z,1.70
2019-05-19T10:08:48.659Z,2.20
2019-05-19T10:09:48.802Z,1.60
2019-05-19T10:10:48.926Z,1.40
2019-05-19T10:11:49.047Z,1.60
2019-05-19T10:12:49.165Z,2.00
2019-05-19T10:13:49.446Z,2.30
2019-05-19T10:14:49.562Z,2.50
2019-05-19T10:15:49.693Z,1.50
2019-05-19T10:16:49.907Z,2.10
2019-05-19T10:17:50.059Z,2.20
2019-05-19T10:18:50.226Z,1.70
2019-05-19T10:19:50.441Z,2.20
2019-05-19T10:20:50.613Z,1.70
2019-05-19T10:21:51.752Z,1.40
2019-05-19T10:22:50.897Z,1.50
2019-05-19T10:23:51.060Z,2.30
2019-05-19T10:25:04.450Z,1.70
2019-05-19T10:25:53.419Z,1.60
2019-05-19T10:26:51.636Z,1.60
2019-05-19T10:27:51.784Z,2.10
2019-05-19T10:28:51.947Z,1.80
2019-05-19T10:29:52.100Z,1.70
2019-05-19T10:30:52.954Z,1.70
2019-05-19T10:31:54.376Z,1.80
2019-05-19T10:32:53.736Z,2.10
2019-05-19T10:33:52.890Z,1.30
2019-05-19T10:34:53.058Z,2.40
2019-05-19T10:35:53.182Z,2.40
2019-05-19T10:36:53.952Z,1.80
2019-05-19T10:37:53.609Z,1.70
2019-05-19T10:38:53.810Z,1.80
2019-05-19T10:39:53.956Z,1.70
2019-05-19T10:40:54.086Z,2.10
2019-05-19T10:41:54.229Z,1.80
2019-05-19T10:42:54.375Z,1.80
2019-05-19T10:43:54.517Z,1.50
2019-05-19T10:44:54.621Z,1.80
2019-05-19T10:45:54.875Z,1.50
2019-05-19T10:46:55.012Z,1.80
2019-05-19T10:47:56.265Z,1.90
2019-05-19T10:48:55.427Z,1.70
2019-05-19T10:49:56.464Z,1.60
2019-05-19T10:50:55.715Z,1.60
2019-05-19T10:51:55.859Z,1.80
2019-05-19T10:52:56.005Z,1.80
2019-05-19T10:53:56.246Z,1.80
2019-05-19T10:54:56.274Z,1.40
2019-05-19T10:55:57.454Z,1.50
2019-05-19T10:56:56.675Z,1.50
2019-05-19T10:57:56.806Z,1.90
2019-05-19T10:58:56.948Z,1.60
2019-05-19T10:59:57.957Z,2.10
2019-05-19T11:00:57.187Z,2.20
2019-05-19T11:01:57.359Z,2.40
2019-05-19T11:02:57.519Z,1.90
2019-05-19T11:03:57.988Z,1.50
2019-05-19T11:04:57.897Z,1.10
2019-05-19T11:05:58.052Z,1.70
2019-05-19T11:06:58.234Z,1.30
2019-05-19T11:07:58.387Z,1.90
2019-05-19T11:08:58.991Z,1.60
2019-05-19T11:09:58.728Z,1.50
2019-05-19T11:10:58.856Z,1.90
2019-05-19T11:11:59.001Z,2.00
2019-05-19T11:12:59.139Z,1.40
2019-05-19T11:13:59.320Z,1.50
2019-05-19T11:14:59.447Z,1.80
2019-05-19T11:15:59.681Z,1.40
2019-05-19T11:16:59.814Z,2.40
2019-05-19T11:18:00.019Z,2.10
2019-05-19T11:19:00.502Z,1.50
2019-05-19T11:20:00.476Z,1.50
2019-05-19T11:21:00.761Z,1.70
2019-05-19T11:22:00.882Z,1.70
2019-05-19T11:23:01.130Z,2.20
2019-05-19T11:24:01.345Z,2.20
2019-05-19T11:25:01.592Z,1.10
2019-05-19T11:26:01.712Z,1.50
2019-05-19T11:27:01.952Z,1.90
2019-05-19T11:28:02.195Z,1.60
2019-05-19T11:29:02.311Z,1.30
2019-05-19T11:30:02.518Z,1.70
2019-05-19T11:31:04.463Z,1.10
2019-05-19T11:32:02.926Z,2.20
2019-05-19T11:33:03.981Z,1.20
2019-05-19T11:34:03.497Z,1.70
2019-05-19T11:35:03.369Z,1.30
2019-05-19T11:36:04.473Z,1.80
2019-05-19T11:37:07.213Z,1.20
2019-05-19T11:38:04.040Z,1.40
2019-05-19T11:39:04.167Z,1.60
2019-05-19T11:40:04.400Z,1.40
2019-05-19T11:41:04.637Z,1.70
2019-05-19T11:42:04.798Z,1.30
2019-05-19T11:43:04.925Z,1.40
2019-05-19T11:44:05.986Z,1.40
2019-05-19T11:45:05.199Z,1.70
2019-05-19T11:46:05.365Z,1.80
2019-05-19T11:47:06.474Z,1.90
2019-05-19T11:48:05.693Z,1.50
2019-05-19T11:49:05.831Z,1.50
2019-05-19T11:50:05.958Z,1.70
2019-05-19T11:51:06.139Z,1.10
2019-05-19T11:52:06.293Z,1.40
2019-05-19T11:53:06.486Z,1.80
2019-05-19T11:54:06.607Z,1.20
2019-05-19T11:55:06.743Z,1.80
2019-05-19T11:56:10.985Z,1.10
2019-05-19T11:57:08.083Z,1.50
2019-05-19T11:58:07.246Z,1.80
2019-05-19T11:59:07.373Z,1.10
2019-05-19T12:00:07.528Z,1.30
2019-05-19T12:01:08.512Z,1.50
2019-05-19T12:02:08.213Z,1.20
2019-05-19T12:03:08.102Z,1.60
2019-05-19T12:04:08.206Z,1.50
2019-05-19T12:05:08.466Z,1.60
2019-05-19T12:06:08.600Z,1.30
2019-05-19T12:07:08.731Z,1.80
2019-05-19T12:08:08.877Z,1.10
2019-05-19T12:09:09.011Z,1.40
2019-05-19T12:10:09.160Z,1.80
2019-05-19T12:11:09.327Z,1.30
2019-05-19T12:12:09.471Z,1.50
2019-05-19T12:13:09.582Z,0.80
2019-05-19T12:14:09.731Z,0.60
2019-05-19T12:15:09.850Z,0.80
2019-05-19T12:16:10.090Z,0.80
2019-05-19T12:17:10.377Z,0.90
2019-05-19T12:18:10.551Z,0.50
2019-05-19T12:19:10.718Z,0.60
2019-05-19T12:20:10.857Z,0.40
2019-05-19T12:21:11.020Z,0.30
2019-05-19T12:22:11.131Z,0.30
2019-05-19T12:23:11.262Z,0.40
2019-05-19T12:24:11.520Z,0.70
2019-05-19T12:25:11.656Z,0.60
2019-05-19T12:26:22.839Z,0.30
2019-05-19T12:27:14.976Z,0.40
2019-05-19T12:28:13.159Z,0.40
2019-05-19T12:29:12.381Z,0.80
2019-05-19T12:30:12.539Z,0.50
2019-05-19T12:31:12.690Z,0.40
2019-05-19T12:32:12.857Z,0.30
2019-05-19T12:33:13.002Z,0.40
2019-05-19T12:34:14.988Z,0.40
2019-05-19T12:35:13.991Z,0.50
2019-05-19T12:36:13.530Z,0.30
2019-05-19T12:37:13.673Z,0.80
2019-05-19T12:38:14.498Z,0.70
2019-05-19T12:39:13.988Z,0.50
2019-05-19T12:40:14.137Z,0.70
2019-05-19T12:41:14.509Z,0.30
2019-05-19T12:42:14.403Z,0.30
2019-05-19T12:43:15.499Z,0.30
2019-05-19T12:44:14.719Z,0.50
2019-05-19T12:45:14.840Z,0.40
2019-05-19T12:46:16.650Z,0.70
2019-05-19T12:47:16.224Z,0.50
2019-05-19T12:48:15.458Z,0.30
2019-05-19T12:49:16.499Z,0.40
2019-05-19T12:50:16.000Z,0.60
2019-05-19T12:51:15.966Z,0.80
2019-05-19T12:52:17.009Z,0.60
2019-05-19T12:53:16.368Z,0.30
2019-05-19T12:54:16.491Z,0.40
2019-05-19T12:55:16.664Z,0.30
2019-05-19T12:56:16.794Z,0.40
2019-05-19T12:57:16.925Z,0.80
2019-05-19T12:58:18.032Z,0.50
2019-05-19T12:59:18.005Z,0.60
2019-05-19T13:00:17.585Z,0.30
2019-05-19T13:01:18.500Z,0.30
2019-05-19T13:02:17.874Z,0.30
2019-05-19T13:03:18.020Z,0.80
2019-05-19T13:04:18.141Z,0.50
2019-05-19T13:05:19.251Z,0.50
2019-05-19T13:06:18.418Z,0.70
2019-05-19T13:07:19.492Z,0.40
2019-05-19T13:08:18.864Z,0.30
2019-05-19T13:09:19.493Z,0.30
2019-05-19T13:10:19.187Z,0.60
2019-05-19T13:11:19.435Z,0.30
2019-05-19T13:12:20.504Z,0.40
2019-05-19T13:13:19.755Z,0.30
2019-05-19T13:14:19.992Z,0.40
2019-05-19T13:15:20.225Z,0.50
2019-05-19T13:16:20.363Z,0.20
2019-05-19T13:17:20.473Z,0.30
2019-05-19T13:18:20.736Z,0.30
2019-05-19T13:19:20.821Z,0.20
2019-05-19T13:20:21.050Z,0.60